createdAt,value
2023-05-21T00:00:12.307Z,52.48
2023-05-21T00:02:39.607Z,53.36
2023-05-21T00:05:06.791Z,52.63
2023-05-21T00:07:33.307Z,52.48
2023-05-21T00:10:00.261Z,52.47
2023-05-21T00:12:26.876Z,52.10
2023-05-21T00:14:53.413Z,53.05
2023-05-21T00:17:19.909Z,52.35
2023-05-21T00:19:46.474Z,52.54
2023-05-21T00:22:14.288Z,52.36
2023-05-21T00:24:40.864Z,51.94
2023-05-21T00:27:07.351Z,52.00
2023-05-21T00:29:33.859Z,51.63
2023-05-21T00:32:00.388Z,51.93
2023-05-21T00:34:27.280Z,51.75
2023-05-21T00:36:55.505Z,52.51
2023-05-21T00:39:22.001Z,52.60
2023-05-21T00:41:48.630Z,52.60
2023-05-21T00:44:16.881Z,52.34
2023-05-21T00:46:44.324Z,52.50
2023-05-21T00:49:11.435Z,52.41
2023-05-21T00:51:37.985Z,52.00
2023-05-21T00:54:04.664Z,52.32
2023-05-21T00:56:31.178Z,52.22
2023-05-21T00:58:58.324Z,51.60
2023-05-21T01:01:34.023Z,51.76
2023-05-21T01:04:01.773Z,52.44
2023-05-21T01:06:34.680Z,52.16
2023-05-21T01:09:05.197Z,52.54
2023-05-21T01:11:44.027Z,52.63
2023-05-21T01:14:12.704Z,52.92
2023-05-21T01:16:41.094Z,52.99
2023-05-21T01:19:10.314Z,52.66
2023-05-21T01:21:37.903Z,52.41
2023-05-21T01:24:08.138Z,52.27
2023-05-21T01:26:38.732Z,52.16
2023-05-21T01:29:06.573Z,52.22
2023-05-21T01:32:05.721Z,52.07
2023-05-21T01:34:56.240Z,52.26
2023-05-21T01:37:35.376Z,52.00
2023-05-21T01:40:16.350Z,52.09
2023-05-21T01:42:44.743Z,52.05
2023-05-21T01:45:12.458Z,52.09
2023-05-21T01:47:39.709Z,51.86
2023-05-21T01:50:07.024Z,52.11
2023-05-21T01:52:33.656Z,52.19
2023-05-21T01:55:00.342Z,52.75
2023-05-21T01:57:26.933Z,52.80
2023-05-21T01:59:53.458Z,52.87
2023-05-21T02:02:20.108Z,53.14
2023-05-21T02:04:46.669Z,53.38
2023-05-21T02:07:15.078Z,53.67
2023-05-21T02:09:41.655Z,53.51
2023-05-21T02:12:08.279Z,53.39
2023-05-21T02:14:34.965Z,53.69
2023-05-21T02:17:01.474Z,53.59
2023-05-21T02:19:28.042Z,53.79
2023-05-21T02:21:54.567Z,53.53
2023-05-21T02:24:22.253Z,53.54
2023-05-21T02:26:50.409Z,54.16
2023-05-21T02:29:17.120Z,53.87
2023-05-21T02:31:43.610Z,54.08
2023-05-21T02:34:10.145Z,54.29
2023-05-21T02:36:36.688Z,54.91
2023-05-21T02:39:03.410Z,54.54
2023-05-21T02:41:29.901Z,54.58
2023-05-21T02:43:56.373Z,54.73
2023-05-21T02:46:22.964Z,54.51
2023-05-21T02:48:49.502Z,54.51
2023-05-21T02:51:16.213Z,54.95
2023-05-21T02:53:42.842Z,54.24
2023-05-21T02:56:09.455Z,54.15
2023-05-21T02:58:35.981Z,54.23
2023-05-21T03:01:02.512Z,54.44
2023-05-21T03:03:29.146Z,54.00
2023-05-21T03:05:55.663Z,53.93
2023-05-21T03:08:22.191Z,53.95
2023-05-21T03:10:48.956Z,54.13
2023-05-21T03:13:15.606Z,53.87
2023-05-21T03:15:43.899Z,53.98
2023-05-21T03:18:11.835Z,54.07
2023-05-21T03:20:43.657Z,53.88
2023-05-21T03:23:14.240Z,53.80
2023-05-21T03:25:42.871Z,54.48
2023-05-21T03:28:10.130Z,54.98
2023-05-21T03:30:39.589Z,54.23
2023-05-21T03:33:06.549Z,55.25
2023-05-21T03:35:33.245Z,55.96
2023-05-21T03:37:59.912Z,55.28
2023-05-21T03:40:26.428Z,55.12
2023-05-21T03:42:52.919Z,54.83
2023-05-21T03:45:19.536Z,55.16
2023-05-21T03:47:46.213Z,55.34
2023-05-21T03:50:12.803Z,55.36
2023-05-21T03:52:39.319Z,55.08
2023-05-21T03:55:06.675Z,55.07
2023-05-21T03:57:33.213Z,54.77
2023-05-21T03:59:59.869Z,54.53
2023-05-21T04:02:27.519Z,54.34
2023-05-21T04:04:55.849Z,54.23
2023-05-21T04:07:22.648Z,54.73
2023-05-21T04:09:49.317Z,54.69
2023-05-21T04:12:17.959Z,54.42
2023-05-21T04:14:44.407Z,54.43
2023-05-21T04:17:12.698Z,54.30
2023-05-21T04:19:39.294Z,53.95
2023-05-21T04:22:05.986Z,53.68
2023-05-21T04:24:32.552Z,53.25
2023-05-21T04:27:01.566Z,53.48
2023-05-21T04:29:29.889Z,53.06
2023-05-21T04:31:56.556Z,53.21
2023-05-21T04:34:24.344Z,53.29
2023-05-21T04:36:52.008Z,53.55
2023-05-21T04:39:18.518Z,53.39
2023-05-21T04:41:45.195Z,53.37
2023-05-21T04:44:14.700Z,53.21
2023-05-21T04:46:41.954Z,52.92
2023-05-21T04:49:10.143Z,53.24
2023-05-21T04:51:37.797Z,53.23
2023-05-21T04:54:04.397Z,53.18
2023-05-21T04:56:31.869Z,52.98
2023-05-21T04:58:58.951Z,52.45
2023-05-21T05:01:27.249Z,53.23
2023-05-21T05:03:54.069Z,52.97
2023-05-21T05:06:21.390Z,52.95
2023-05-21T05:08:48.005Z,52.54
2023-05-21T05:11:14.526Z,52.42
2023-05-21T05:13:43.905Z,52.17
2023-05-21T05:16:10.503Z,51.86
2023-05-21T05:18:37.036Z,52.24
2023-05-21T05:21:03.717Z,52.12
2023-05-21T05:23:30.414Z,51.84
2023-05-21T05:25:56.980Z,51.37
2023-05-21T05:28:23.575Z,51.55
2023-05-21T05:30:50.193Z,51.32
2023-05-21T05:33:16.756Z,50.76
2023-05-21T05:35:43.252Z,50.59
2023-05-21T05:38:10.498Z,50.55
2023-05-21T05:40:36.995Z,51.18
2023-05-21T05:43:03.661Z,50.78
2023-05-21T05:45:30.239Z,50.95
2023-05-21T05:47:56.850Z,51.03
2023-05-21T05:50:23.408Z,51.05
2023-05-21T05:52:50.064Z,51.13
2023-05-21T05:55:16.748Z,50.28
2023-05-21T05:57:44.976Z,50.85
2023-05-21T06:00:12.404Z,51.95
2023-05-21T06:02:38.945Z,51.74
2023-05-21T06:05:06.953Z,51.94
2023-05-21T06:07:33.750Z,50.97
2023-05-21T06:10:00.215Z,51.47
2023-05-21T06:12:26.730Z,51.29
2023-05-21T06:14:53.261Z,50.73
2023-05-21T06:17:19.737Z,51.10
2023-05-21T06:19:46.328Z,50.63
2023-05-21T06:22:12.914Z,51.56
2023-05-21T06:24:39.443Z,50.24
2023-05-21T06:27:06.255Z,49.59
2023-05-21T06:29:32.798Z,49.46
2023-05-21T06:31:59.289Z,49.23
2023-05-21T06:34:26.044Z,49.56
2023-05-21T06:36:52.816Z,49.33
2023-05-21T06:39:19.457Z,49.43
2023-05-21T06:41:46.066Z,50.65
2023-05-21T06:44:12.532Z,50.01
2023-05-21T06:46:39.073Z,49.53
2023-05-21T06:49:07.057Z,49.21
2023-05-21T06:51:34.057Z,48.53
2023-05-21T06:54:00.764Z,48.61
2023-05-21T06:56:27.383Z,48.24
2023-05-21T06:58:54.494Z,48.53
2023-05-21T07:01:22.417Z,49.29
2023-05-21T07:03:49.390Z,48.94
2023-05-21T07:06:17.003Z,48.72
2023-05-21T07:08:43.577Z,48.87
2023-05-21T07:11:10.335Z,48.63
2023-05-21T07:13:37.104Z,47.78
2023-05-21T07:16:03.734Z,47.39
2023-05-21T07:18:31.218Z,47.20
2023-05-21T07:20:57.779Z,47.12
2023-05-21T07:23:24.557Z,46.51
2023-05-21T07:25:51.325Z,45.68
2023-05-21T07:28:17.960Z,45.55
2023-05-21T07:30:44.522Z,45.01
2023-05-21T07:33:12.588Z,44.91
2023-05-21T07:35:39.347Z,44.60
2023-05-21T07:38:06.205Z,44.02
2023-05-21T07:40:32.773Z,43.81
2023-05-21T07:42:59.282Z,44.54
2023-05-21T07:45:25.897Z,46.45
2023-05-21T07:47:52.575Z,47.21
2023-05-21T07:50:19.204Z,46.92
2023-05-21T07:52:45.983Z,45.94
2023-05-21T07:55:12.578Z,45.28
2023-05-21T07:57:39.121Z,44.87
2023-05-21T08:00:09.565Z,44.96
2023-05-21T08:02:36.356Z,45.35
2023-05-21T08:05:03.088Z,46.10
2023-05-21T08:07:29.701Z,44.95
2023-05-21T08:09:56.478Z,44.43
2023-05-21T08:12:23.017Z,43.21
2023-05-21T08:14:49.698Z,42.39
2023-05-21T08:17:16.582Z,41.96
2023-05-21T08:19:43.218Z,42.62
2023-05-21T08:22:10.132Z,41.45
2023-05-21T08:24:36.801Z,41.88
2023-05-21T08:27:03.429Z,41.05
2023-05-21T08:29:30.041Z,40.59
2023-05-21T08:31:56.600Z,40.08
2023-05-21T08:34:23.291Z,39.55
2023-05-21T08:36:50.007Z,37.76
2023-05-21T08:39:16.662Z,36.54
2023-05-21T08:41:49.396Z,36.12
2023-05-21T08:44:20.432Z,36.31
2023-05-21T08:46:49.933Z,36.20
2023-05-21T08:49:17.540Z,34.77
2023-05-21T08:51:45.686Z,33.31
2023-05-21T08:54:13.957Z,32.70
2023-05-21T08:56:45.667Z,32.41
2023-05-21T08:59:12.755Z,33.29
2023-05-21T09:01:42.277Z,32.07
2023-05-21T09:04:20.266Z,33.67
2023-05-21T09:06:48.387Z,32.38
2023-05-21T09:09:24.879Z,31.71
2023-05-21T09:11:51.464Z,30.47
2023-05-21T09:14:18.902Z,29.43
2023-05-21T09:16:48.420Z,28.79
2023-05-21T09:19:15.086Z,27.16
2023-05-21T09:21:41.781Z,27.02
2023-05-21T09:24:09.646Z,26.28
2023-05-21T09:26:36.292Z,25.81
2023-05-21T09:29:02.838Z,26.18
2023-05-21T09:31:29.607Z,26.85
2023-05-21T09:33:56.200Z,27.05
2023-05-21T09:36:22.943Z,28.86
2023-05-21T09:38:51.823Z,28.92
2023-05-21T09:41:21.888Z,28.42
2023-05-21T09:43:48.828Z,28.60
2023-05-21T09:46:15.511Z,29.03
2023-05-21T09:48:43.595Z,29.00
2023-05-21T09:51:14.646Z,28.94
2023-05-21T09:54:01.108Z,29.68
2023-05-21T09:56:32.326Z,26.80
2023-05-21T09:59:01.972Z,24.58
2023-05-21T10:01:31.089Z,23.91
2023-05-21T10:03:59.390Z,22.99
2023-05-21T10:06:30.085Z,22.35
2023-05-21T10:08:58.099Z,21.75
2023-05-21T10:11:31.015Z,22.29
2023-05-21T10:13:58.165Z,22.73
2023-05-21T10:16:24.891Z,21.00
2023-05-21T10:18:54.150Z,20.28
2023-05-21T10:21:24.050Z,22.01
2023-05-21T10:23:51.653Z,21.66
2023-05-21T10:26:21.444Z,22.50
2023-05-21T10:28:50.080Z,23.08
2023-05-21T10:31:16.904Z,25.46
2023-05-21T10:33:43.602Z,25.52
2023-05-21T10:36:10.351Z,25.03
2023-05-21T10:38:37.618Z,28.12
2023-05-21T10:41:07.458Z,29.31
2023-05-21T10:44:21.827Z,30.64
2023-05-21T10:47:22.400Z,31.19
2023-05-21T10:49:59.407Z,32.14
2023-05-21T10:52:38.039Z,33.16
2023-05-21T10:55:29.667Z,37.46
2023-05-21T10:58:18.294Z,36.33
2023-05-21T11:00:45.159Z,35.31
2023-05-21T11:03:13.193Z,36.01
2023-05-21T11:05:43.807Z,33.54
2023-05-21T11:08:23.545Z,32.69
2023-05-21T11:11:00.288Z,32.27
2023-05-21T11:13:27.552Z,33.79
2023-05-21T11:16:05.210Z,33.47
2023-05-21T11:18:37.892Z,32.09
2023-05-21T11:21:15.331Z,32.13
2023-05-21T11:23:53.742Z,33.45
2023-05-21T11:26:22.501Z,33.90
2023-05-21T11:29:08.569Z,34.53
2023-05-21T11:31:39.279Z,33.27
2023-05-21T11:34:09.119Z,32.83
2023-05-21T11:36:37.925Z,32.63
2023-05-21T11:39:11.976Z,32.85
2023-05-21T11:42:04.164Z,33.48
2023-05-21T11:44:41.851Z,32.94
2023-05-21T11:47:10.063Z,33.36
2023-05-21T11:49:37.200Z,33.39
2023-05-21T11:52:05.516Z,33.55
2023-05-21T11:54:36.779Z,33.77
2023-05-21T11:57:06.880Z,35.23
2023-05-21T11:59:34.407Z,34.11
2023-05-21T12:02:02.020Z,32.74
2023-05-21T12:04:38.615Z,33.10
2023-05-21T12:07:10.226Z,32.44
2023-05-21T12:09:44.409Z,32.29
2023-05-21T12:12:16.174Z,31.61
2023-05-21T12:15:01.535Z,31.81
2023-05-21T12:17:28.231Z,31.52
2023-05-21T12:19:56.541Z,30.58
2023-05-21T12:22:24.758Z,30.41
2023-05-21T12:24:51.468Z,30.70
2023-05-21T12:27:18.257Z,30.98
2023-05-21T12:29:46.088Z,33.81
2023-05-21T12:32:14.445Z,33.30
2023-05-21T12:34:46.195Z,32.65
2023-05-21T12:37:32.615Z,33.44
2023-05-21T12:40:00.671Z,32.21
2023-05-21T12:42:32.392Z,33.36
2023-05-21T12:44:59.066Z,31.98
2023-05-21T12:47:26.878Z,32.14
2023-05-21T12:50:04.101Z,32.25
2023-05-21T12:52:31.068Z,33.29
2023-05-21T12:54:58.052Z,33.20
2023-05-21T12:57:26.207Z,33.63
2023-05-21T12:59:57.728Z,32.67
2023-05-21T13:02:26.046Z,32.29
2023-05-21T13:05:00.683Z,33.04
2023-05-21T13:07:31.175Z,33.23
2023-05-21T13:09:59.099Z,32.75
2023-05-21T13:12:27.543Z,32.19
2023-05-21T13:14:55.481Z,31.64
2023-05-21T13:17:22.605Z,33.56
2023-05-21T13:20:15.605Z,34.69
2023-05-21T13:22:46.572Z,33.92
2023-05-21T13:25:21.810Z,34.42
2023-05-21T13:27:49.474Z,33.97
2023-05-21T13:30:16.069Z,34.47
2023-05-21T13:32:43.432Z,35.41
2023-05-21T13:35:11.325Z,33.87
2023-05-21T13:37:39.990Z,34.70
2023-05-21T13:40:11.510Z,34.80
2023-05-21T13:42:40.825Z,33.94
2023-05-21T13:45:09.037Z,34.23
2023-05-21T13:47:39.183Z,33.16
2023-05-21T13:50:07.473Z,31.99
2023-05-21T13:52:34.162Z,31.99
2023-05-21T13:55:00.989Z,32.90
2023-05-21T13:57:30.621Z,32.96
2023-05-21T13:59:58.147Z,33.42
2023-05-21T14:02:24.841Z,34.38
2023-05-21T14:04:51.764Z,36.87
2023-05-21T14:07:18.401Z,35.37
2023-05-21T14:09:47.547Z,35.66
2023-05-21T14:12:14.308Z,35.81
2023-05-21T14:14:41.413Z,34.42
2023-05-21T14:17:07.959Z,35.76
2023-05-21T14:19:34.612Z,35.07
2023-05-21T14:22:01.201Z,34.89
2023-05-21T14:24:27.732Z,35.40
2023-05-21T14:26:54.489Z,36.16
2023-05-21T14:29:21.020Z,35.65
2023-05-21T14:31:47.558Z,34.11
2023-05-21T14:34:14.203Z,34.09
2023-05-21T14:36:40.942Z,34.63
2023-05-21T14:39:45.011Z,35.65
2023-05-21T14:42:52.855Z,35.88
2023-05-21T14:46:00.092Z,34.67
2023-05-21T14:49:07.396Z,34.23
2023-05-21T14:52:14.594Z,35.47
2023-05-21T14:55:22.388Z,36.32
2023-05-21T14:57:48.885Z,34.62
2023-05-21T15:00:16.078Z,34.16
2023-05-21T15:02:42.731Z,34.91
2023-05-21T15:05:09.674Z,35.20
2023-05-21T15:07:36.485Z,36.46
2023-05-21T15:10:03.090Z,36.94
2023-05-21T15:12:30.130Z,37.87
2023-05-21T15:14:56.818Z,38.05
2023-05-21T15:17:23.846Z,38.76
2023-05-21T15:19:50.414Z,39.25
2023-05-21T15:22:21.153Z,38.49
2023-05-21T15:24:52.329Z,38.85
2023-05-21T15:27:19.193Z,37.81
2023-05-21T15:29:45.943Z,38.89
2023-05-21T15:32:12.481Z,38.21
2023-05-21T15:34:39.093Z,38.29
2023-05-21T15:37:05.752Z,38.50
2023-05-21T15:39:32.271Z,39.97
2023-05-21T15:42:00.701Z,38.62
2023-05-21T15:44:27.246Z,38.23
2023-05-21T15:46:54.787Z,39.10
2023-05-21T15:49:21.339Z,38.48
2023-05-21T15:51:48.609Z,37.69
2023-05-21T15:54:15.182Z,38.18
2023-05-21T15:56:43.489Z,37.75
2023-05-21T15:59:10.038Z,36.89
2023-05-21T16:01:36.699Z,37.30
2023-05-21T16:04:04.853Z,37.53
2023-05-21T16:06:31.593Z,37.13
2023-05-21T16:08:58.938Z,37.42
2023-05-21T16:11:26.336Z,37.85
2023-05-21T16:13:53.778Z,37.46
2023-05-21T16:16:23.840Z,37.68
2023-05-21T16:18:51.391Z,37.56
2023-05-21T16:21:18.074Z,38.21
2023-05-21T16:23:44.687Z,38.41
2023-05-21T16:26:11.574Z,37.82
2023-05-21T16:28:38.116Z,38.05
2023-05-21T16:31:06.119Z,39.04
2023-05-21T16:33:32.971Z,38.61
2023-05-21T16:35:59.502Z,38.48
2023-05-21T16:38:26.006Z,39.22
2023-05-21T16:40:52.625Z,39.11
2023-05-21T16:43:19.215Z,39.06
2023-05-21T16:45:46.786Z,39.48
2023-05-21T16:48:13.603Z,39.16
2023-05-21T16:50:40.776Z,39.60
2023-05-21T16:53:09.677Z,39.65
2023-05-21T16:55:37.633Z,39.47
2023-05-21T16:58:05.551Z,38.72
2023-05-21T17:00:32.608Z,39.54
2023-05-21T17:02:59.233Z,39.37
2023-05-21T17:05:26.415Z,39.85
2023-05-21T17:07:52.981Z,39.03
2023-05-21T17:10:19.734Z,40.09
2023-05-21T17:12:46.290Z,39.34
2023-05-21T17:15:12.854Z,40.23
2023-05-21T17:17:39.473Z,40.25
2023-05-21T17:20:06.992Z,40.42
2023-05-21T17:22:33.527Z,40.80
2023-05-21T17:25:00.041Z,40.80
2023-05-21T17:27:26.574Z,40.85
2023-05-21T17:29:53.119Z,40.79
2023-05-21T17:32:22.600Z,41.01
2023-05-21T17:34:49.164Z,41.03
2023-05-21T17:37:16.216Z,41.20
2023-05-21T17:39:42.789Z,41.40
2023-05-21T17:42:09.271Z,41.70
2023-05-21T17:44:35.808Z,41.67
2023-05-21T17:47:02.349Z,41.43
2023-05-21T17:49:29.040Z,41.50
2023-05-21T17:51:55.819Z,41.99
2023-05-21T17:54:22.344Z,41.90
2023-05-21T17:56:48.972Z,42.32
2023-05-21T17:59:16.609Z,42.05
2023-05-21T18:01:43.188Z,41.49
2023-05-21T18:04:12.047Z,40.99
2023-05-21T18:06:39.596Z,41.27
2023-05-21T18:09:14.359Z,41.36
2023-05-21T18:11:43.317Z,41.66
2023-05-21T18:14:09.880Z,41.09
2023-05-21T18:16:36.474Z,40.74
2023-05-21T18:19:05.876Z,40.82
2023-05-21T18:21:34.422Z,41.07
2023-05-21T18:24:02.092Z,40.94
2023-05-21T18:26:30.232Z,41.55
2023-05-21T18:28:57.950Z,41.35
2023-05-21T18:31:25.170Z,41.47
2023-05-21T18:33:52.066Z,41.48
2023-05-21T18:36:18.771Z,41.25
2023-05-21T18:38:45.345Z,41.64
2023-05-21T18:41:11.917Z,41.59
2023-05-21T18:43:38.486Z,42.12
2023-05-21T18:46:05.250Z,42.01
2023-05-21T18:48:32.980Z,42.35
2023-05-21T18:51:01.511Z,42.70
2023-05-21T18:53:28.133Z,42.39
2023-05-21T18:55:54.808Z,42.41
2023-05-21T18:58:21.345Z,42.63
2023-05-21T19:00:47.836Z,42.56
2023-05-21T19:03:14.365Z,43.14
2023-05-21T19:05:41.055Z,45.48
2023-05-21T19:08:07.561Z,45.82
2023-05-21T19:10:34.168Z,45.41
2023-05-21T19:13:00.895Z,45.47
2023-05-21T19:15:27.405Z,45.26
2023-05-21T19:17:54.307Z,45.22
2023-05-21T19:20:24.313Z,44.73
2023-05-21T19:22:50.990Z,44.86
2023-05-21T19:25:17.504Z,45.78
2023-05-21T19:27:44.407Z,44.47
2023-05-21T19:30:11.294Z,44.06
2023-05-21T19:32:37.785Z,43.45
2023-05-21T19:35:05.564Z,42.88
2023-05-21T19:37:32.049Z,42.89
2023-05-21T19:39:58.576Z,43.26
2023-05-21T19:42:25.097Z,42.93
2023-05-21T19:44:51.753Z,42.50
2023-05-21T19:47:18.353Z,43.59
2023-05-21T19:49:45.167Z,43.74
2023-05-21T19:52:12.382Z,44.30
2023-05-21T19:54:39.269Z,45.11
2023-05-21T19:57:06.783Z,46.09
2023-05-21T19:59:33.407Z,49.01
2023-05-21T20:01:59.971Z,52.34
2023-05-21T20:04:27.439Z,54.78
2023-05-21T20:06:53.981Z,56.30
2023-05-21T20:09:20.555Z,57.79
2023-05-21T20:11:49.913Z,57.99
2023-05-21T20:14:16.502Z,60.71
2023-05-21T20:16:47.062Z,59.86
2023-05-21T20:19:15.167Z,62.11
2023-05-21T20:21:41.900Z,62.87
2023-05-21T20:24:08.726Z,63.88
2023-05-21T20:26:36.412Z,64.46
2023-05-21T20:29:03.394Z,64.04
2023-05-21T20:31:30.568Z,65.11
2023-05-21T20:33:57.108Z,65.40
2023-05-21T20:36:23.768Z,67.28
2023-05-21T20:38:50.368Z,67.74
2023-05-21T20:41:16.914Z,68.96
2023-05-21T20:43:45.361Z,71.33
2023-05-21T20:46:11.843Z,69.98
2023-05-21T20:48:38.361Z,75.29
2023-05-21T20:51:04.991Z,74.41
2023-05-21T20:53:31.954Z,73.14
2023-05-21T20:55:58.587Z,72.41
2023-05-21T20:58:25.409Z,72.43
2023-05-21T21:00:51.997Z,72.61
2023-05-21T21:03:18.772Z,71.83
2023-05-21T21:05:45.402Z,71.83
2023-05-21T21:08:12.383Z,72.37
2023-05-21T21:10:41.242Z,73.21
2023-05-21T21:13:08.163Z,75.09
2023-05-21T21:15:35.245Z,77.23
2023-05-21T21:18:01.805Z,76.92
2023-05-21T21:20:28.596Z,76.23
2023-05-21T21:22:55.382Z,73.78
2023-05-21T21:25:36.723Z,74.36
2023-05-21T21:28:04.364Z,73.79
2023-05-21T21:30:31.082Z,73.51
2023-05-21T21:32:57.617Z,72.68
2023-05-21T21:35:24.524Z,71.46
2023-05-21T21:37:51.447Z,71.01
2023-05-21T21:40:21.200Z,70.75
2023-05-21T21:42:47.733Z,70.65
2023-05-21T21:45:14.206Z,70.96
2023-05-21T21:47:41.101Z,71.58
2023-05-21T21:50:08.040Z,71.33
2023-05-21T21:52:34.706Z,71.73
2023-05-21T21:55:01.206Z,72.15
2023-05-21T21:57:29.407Z,72.13
2023-05-21T21:59:58.842Z,71.07
2023-05-21T22:02:25.776Z,72.16
2023-05-21T22:04:52.323Z,71.17
2023-05-21T22:07:20.706Z,71.17
2023-05-21T22:09:47.230Z,70.82
2023-05-21T22:12:13.765Z,69.88
2023-05-21T22:14:40.267Z,70.28
2023-05-21T22:17:08.530Z,70.56
2023-05-21T22:19:35.874Z,70.98
2023-05-21T22:22:03.989Z,70.97
2023-05-21T22:24:32.768Z,70.73
2023-05-21T22:27:02.575Z,71.62
2023-05-21T22:29:29.467Z,70.90
2023-05-21T22:31:56.107Z,70.76
2023-05-21T22:34:25.260Z,72.87
2023-05-21T22:36:51.897Z,73.50
2023-05-21T22:39:18.530Z,73.12
2023-05-21T22:41:45.576Z,73.27
2023-05-21T22:44:12.084Z,71.71
2023-05-21T22:46:38.922Z,72.90
2023-05-21T22:49:06.251Z,72.55
2023-05-21T22:51:34.432Z,71.96
2023-05-21T22:54:04.828Z,71.40
2023-05-21T22:56:31.335Z,70.60
2023-05-21T22:58:58.290Z,70.29
2023-05-21T23:01:24.958Z,69.93
2023-05-21T23:03:51.868Z,69.77
2023-05-21T23:06:18.613Z,69.29
2023-05-21T23:08:45.283Z,68.81
2023-05-21T23:11:11.859Z,68.54
2023-05-21T23:13:38.401Z,67.55
2023-05-21T23:16:05.873Z,67.15
2023-05-21T23:18:32.980Z,66.75
2023-05-21T23:21:01.010Z,66.23
2023-05-21T23:23:27.700Z,66.51
2023-05-21T23:25:58.903Z,66.42
2023-05-21T23:28:25.932Z,66.44
2023-05-21T23:30:52.712Z,65.79
2023-05-21T23:33:19.378Z,65.28
2023-05-21T23:35:45.956Z,65.21
2023-05-21T23:38:12.501Z,65.08
2023-05-21T23:40:39.591Z,65.04
2023-05-21T23:43:06.367Z,65.01
2023-05-21T23:45:33.047Z,64.88
2023-05-21T23:47:59.648Z,64.55
2023-05-21T23:50:26.215Z,64.42
2023-05-21T23:52:52.781Z,63.88
2023-05-21T23:55:19.320Z,64.00
2023-05-21T23:57:45.848Z,63.83
